Time;durP1;ratioP1;P1;durP2;ratioP2;P2;SDS_P1;SDS_P2;PMS_P1;PMS_P2;Temp;Humidity;BMP_temperature;BMP_pressure;BME280_temperature;BME280_humidity;BME280_pressure;Samples;Min_cycle;Max_cycle;Signal;HPM_P1;HPM_P2
2022/08/01 00:01:46;;;;;;;13.88;7.18;;;18.00;99.90;;;;;;5111475;28;20084;-85
2022/08/01 00:04:12;;;;;;;18.50;8.02;;;18.00;99.90;;;;;;5096057;28;20052;-87
2022/08/01 00:06:37;;;;;;;14.65;6.90;;;18.00;99.90;;;;;;5093126;28;20147;-85
2022/08/01 00:09:03;;;;;;;14.38;7.22;;;18.00;99.90;;;;;;5092849;28;20042;-83
2022/08/01 00:11:29;;;;;;;16.30;6.95;;;18.00;99.90;;;;;;5070447;28;20136;-84
2022/08/01 00:13:54;;;;;;;13.25;6.80;;;18.00;99.90;;;;;;5113089;28;20127;-87
2022/08/01 00:16:22;;;;;;;14.45;7.43;;;18.00;99.90;;;;;;5113014;28;20058;-82
2022/08/01 00:18:49;;;;;;;15.07;6.78;;;18.00;99.90;;;;;;5113218;28;20439;-86
2022/08/01 00:21:15;;;;;;;11.13;5.95;;;18.00;99.90;;;;;;5113205;28;20741;-86
2022/08/01 00:23:41;;;;;;;13.27;5.90;;;18.00;99.90;;;;;;5092405;28;20538;-84
2022/08/01 00:26:07;;;;;;;12.32;5.68;;;18.00;99.90;;;;;;5112691;28;20047;-84
2022/08/01 00:28:33;;;;;;;10.70;4.45;;;18.00;99.90;;;;;;5111083;28;20085;-83
2022/08/01 00:30:59;;;;;;;8.40;4.80;;;18.00;99.90;;;;;;5094486;28;20074;-86
2022/08/01 00:33:24;;;;;;;9.52;4.63;;;18.00;99.90;;;;;;5084397;28;20087;-85
2022/08/01 00:35:50;;;;;;;16.25;5.03;;;18.00;99.90;;;;;;5092456;28;20543;-84
2022/08/01 00:38:15;;;;;;;11.65;4.75;;;17.90;99.90;;;;;;5092323;28;20047;-81
2022/08/01 00:40:41;;;;;;;6.80;3.28;;;18.00;99.90;;;;;;5089480;28;20052;-82
2022/08/01 00:43:07;;;;;;;6.40;3.92;;;18.00;99.90;;;;;;5092282;28;20040;-82
2022/08/01 00:45:32;;;;;;;8.63;3.22;;;18.00;99.90;;;;;;5092159;28;20044;-80
2022/08/01 00:47:58;;;;;;;5.90;3.25;;;17.90;99.90;;;;;;5092161;28;20047;-81
2022/08/01 00:50:24;;;;;;;6.75;2.83;;;18.20;99.90;;;;;;5092231;28;20188;-81
2022/08/01 00:52:50;;;;;;;4.43;2.65;;;17.90;99.90;;;;;;5091993;28;20428;-80
2022/08/01 00:55:18;;;;;;;6.55;3.08;;;18.00;99.90;;;;;;5091988;28;20079;-81
2022/08/01 00:57:44;;;;;;;5.97;2.40;;;18.00;99.90;;;;;;5092601;28;20055;-79
2022/08/01 01:00:10;;;;;;;11.23;2.65;;;17.90;99.90;;;;;;5073727;28;20048;-80
2022/08/01 01:02:36;;;;;;;9.20;2.60;;;17.90;99.90;;;;;;5073126;28;20075;-83
2022/08/01 01:05:02;;;;;;;10.32;2.92;;;18.00;99.90;;;;;;5073729;28;20088;-81
2022/08/01 01:07:37;;;;;;;6.63;2.85;;;17.90;99.90;;;;;;5091767;28;20032;-81
2022/08/01 01:10:08;;;;;;;5.03;2.72;;;17.90;99.90;;;;;;5104437;28;20060;-82
2022/08/01 01:12:51;;;;;;;6.97;3.05;;;17.90;99.90;;;;;;5072815;28;20055;-81
2022/08/01 01:15:40;;;;;;;5.60;2.83;;;17.90;99.90;;;;;;5094695;28;20047;-81
2022/08/01 01:18:11;;;;;;;7.03;2.65;;;17.90;99.90;;;;;;5091642;28;20160;-81
2022/08/01 01:20:40;;;;;;;5.43;2.75;;;17.80;99.90;;;;;;5091580;28;20119;-81
2022/08/01 01:23:50;;;;;;;6.70;3.10;;;17.90;99.90;;;;;;5091268;28;20036;-81
2022/08/01 01:26:40;;;;;;;9.52;2.78;;;17.80;99.90;;;;;;5069162;28;20510;-83
2022/08/01 01:29:11;;;;;;;5.00;2.35;;;17.80;99.90;;;;;;5085096;28;20087;-81
2022/08/01 01:31:57;;;;;;;7.22;2.60;;;17.90;99.90;;;;;;5073337;28;20144;-82
2022/08/01 01:34:24;;;;;;;7.65;2.90;;;18.00;99.90;;;;;;5089680;28;20052;-82
2022/08/01 01:36:53;;;;;;;5.25;2.42;;;17.90;99.90;;;;;;5088121;28;20161;-78
2022/08/01 01:39:21;;;;;;;5.45;2.28;;;17.80;99.90;;;;;;5091230;28;20498;-83
2022/08/01 01:41:48;;;;;;;4.43;1.90;;;17.90;99.90;;;;;;5091116;28;20074;-83
2022/08/01 01:44:15;;;;;;;10.55;2.45;;;17.80;99.90;;;;;;5090791;28;20040;-84
2022/08/01 01:46:42;;;;;;;5.25;1.90;;;18.00;99.90;;;;;;5107395;28;20055;-82
2022/08/01 01:49:12;;;;;;;5.85;2.08;;;17.70;99.90;;;;;;5091324;28;20040;-83
2022/08/01 01:51:39;;;;;;;6.75;1.80;;;17.80;99.90;;;;;;5090928;28;20540;-83
2022/08/01 01:54:07;;;;;;;8.70;2.15;;;17.80;99.90;;;;;;5072682;28;20097;-83
2022/08/01 01:56:34;;;;;;;10.85;2.53;;;17.80;99.90;;;;;;5090820;28;20083;-84
2022/08/01 01:59:02;;;;;;;9.85;2.08;;;17.80;99.90;;;;;;5103892;28;20048;-84
2022/08/01 02:01:34;;;;;;;8.15;2.22;;;17.70;99.90;;;;;;5078776;28;20052;-86
2022/08/01 02:04:02;;;;;;;8.98;1.90;;;17.70;99.90;;;;;;5085614;28;20101;-85
2022/08/01 02:06:30;;;;;;;9.60;1.70;;;17.70;99.90;;;;;;5090577;28;20048;-83
2022/08/01 02:08:56;;;;;;;8.60;1.73;;;17.60;99.90;;;;;;5098041;28;20040;-82
2022/08/01 02:11:22;;;;;;;6.75;2.08;;;17.60;99.90;;;;;;5101537;28;20087;-81
2022/08/01 02:13:55;;;;;;;11.95;2.25;;;17.60;99.90;;;;;;5086693;28;20081;-86
2022/08/01 02:16:24;;;;;;;13.70;2.10;;;17.60;99.90;;;;;;5089636;28;20048;-80
2022/08/01 02:18:50;;;;;;;6.88;1.95;;;17.60;99.90;;;;;;5081520;28;20249;-82
2022/08/01 02:21:26;;;;;;;8.80;1.80;;;17.60;99.90;;;;;;5090549;28;20093;-81
2022/08/01 02:23:53;;;;;;;8.13;1.90;;;17.60;99.90;;;;;;5056746;28;20059;-82
2022/08/01 02:26:22;;;;;;;8.90;1.80;;;17.50;99.90;;;;;;5090015;28;20044;-84
2022/08/01 02:28:55;;;;;;;9.55;1.80;;;17.60;99.90;;;;;;5086067;28;20473;-79
2022/08/01 02:31:22;;;;;;;8.43;2.05;;;17.60;99.90;;;;;;5087642;28;20114;-84
2022/08/01 02:34:05;;;;;;;14.70;2.40;;;17.50;99.90;;;;;;5086397;28;20040;-81
2022/08/01 02:36:34;;;;;;;7.78;1.90;;;17.40;99.90;;;;;;5090113;28;20054;-84
2022/08/01 02:39:08;;;;;;;12.05;2.58;;;17.40;99.90;;;;;;5090047;28;20134;-85
2022/08/01 02:41:38;;;;;;;;;;;17.40;99.90;;;;;;5094518;28;20032;-84
2022/08/01 02:44:06;;;;;;;12.40;2.10;;;17.40;99.90;;;;;;5088386;28;19924;-83
2022/08/01 02:46:37;;;;;;;15.13;2.33;;;17.30;99.90;;;;;;5070937;28;20048;-82
2022/08/01 02:49:06;;;;;;;10.35;2.30;;;17.30;99.90;;;;;;5087721;28;20044;-84
2022/08/01 02:51:32;;;;;;;13.55;2.20;;;17.30;99.90;;;;;;5079691;28;20628;-85
2022/08/01 02:54:01;;;;;;;14.57;2.92;;;17.30;99.90;;;;;;5071507;28;20047;-85
2022/08/01 02:56:34;;;;;;;10.50;2.40;;;17.20;99.90;;;;;;5090045;28;20044;-81
2022/08/01 02:59:03;;;;;;;9.90;2.30;;;17.20;99.90;;;;;;5100923;28;20100;-82
2022/08/01 03:01:30;;;;;;;9.18;2.80;;;17.20;99.90;;;;;;5102031;28;20051;-83
2022/08/01 03:03:55;;;;;;;13.32;2.40;;;17.10;99.90;;;;;;5089433;28;20052;-84
2022/08/01 03:06:23;;;;;;;14.82;3.13;;;17.10;99.90;;;;;;5089588;28;20042;-81
2022/08/01 03:08:49;;;;;;;14.07;2.70;;;17.40;99.90;;;;;;5088781;28;20056;-83
2022/08/01 03:11:16;;;;;;;13.43;2.40;;;17.10;99.90;;;;;;5070885;28;20054;-89
2022/08/01 03:13:45;;;;;;;16.58;3.60;;;17.10;99.90;;;;;;5089666;28;20062;-84
2022/08/01 03:16:12;;;;;;;13.60;3.15;;;17.10;99.90;;;;;;5089300;28;20079;-83
2022/08/01 03:18:41;;;;;;;9.25;2.75;;;17.10;99.90;;;;;;5070766;28;20047;-80
2022/08/01 03:21:08;;;;;;;13.45;2.92;;;17.10;99.90;;;;;;5107438;28;20059;-80
2022/08/01 03:23:36;;;;;;;11.65;2.67;;;17.00;99.90;;;;;;5110111;28;20154;-81
2022/08/01 03:26:02;;;;;;;15.63;3.88;;;17.00;99.90;;;;;;5109926;28;20130;-81
2022/08/01 03:28:29;;;;;;;13.70;3.65;;;17.00;99.90;;;;;;5110107;28;20143;-80
2022/08/01 03:30:56;;;;;;;15.98;3.50;;;17.10;99.90;;;;;;5081330;28;20048;-80
2022/08/01 03:33:21;;;;;;;13.75;3.55;;;17.00;99.90;;;;;;5071413;28;20062;-80
2022/08/01 03:35:53;;;;;;;10.40;2.97;;;17.00;99.90;;;;;;5089606;28;20051;-82
2022/08/01 03:38:23;;;;;;;13.20;3.10;;;16.90;99.90;;;;;;5089322;28;20512;-85
2022/08/01 03:40:53;;;;;;;14.30;3.33;;;17.00;99.90;;;;;;5090235;28;20533;-85
2022/08/01 03:43:27;;;;;;;13.57;3.05;;;16.90;99.90;;;;;;5088504;28;20032;-82
2022/08/01 03:45:56;;;;;;;10.83;3.13;;;17.00;99.90;;;;;;5089303;28;20056;-81
2022/08/01 03:48:28;;;;;;;9.32;2.72;;;16.90;99.90;;;;;;5089047;28;20044;-82
2022/08/01 03:50:54;;;;;;;13.75;3.25;;;17.00;99.90;;;;;;5089402;28;20583;-84
2022/08/01 03:53:24;;;;;;;14.65;2.90;;;17.00;99.90;;;;;;5090878;28;20054;-84
2022/08/01 03:55:52;;;;;;;14.13;3.30;;;16.90;99.90;;;;;;5109915;28;20075;-82
2022/08/01 03:58:18;;;;;;;17.05;3.33;;;16.80;99.90;;;;;;5109146;28;20044;-80
2022/08/01 04:00:44;;;;;;;16.17;2.90;;;16.80;99.90;;;;;;5094667;28;20044;-80
2022/08/01 04:03:11;;;;;;;15.43;3.83;;;16.80;99.90;;;;;;5092037;28;20376;-82
2022/08/01 04:05:40;;;;;;;15.80;3.50;;;16.80;99.90;;;;;;5074434;28;20048;-83
2022/08/01 04:08:05;;;;;;;17.77;3.38;;;16.90;99.90;;;;;;5093101;28;20048;-81
2022/08/01 04:10:31;;;;;;;14.75;2.80;;;16.80;99.90;;;;;;5075174;28;20109;-81
2022/08/01 04:12:57;;;;;;;11.20;3.03;;;17.00;99.90;;;;;;5092200;28;20410;-81
2022/08/01 04:15:23;;;;;;;15.23;2.65;;;16.90;99.90;;;;;;5092461;28;20047;-85
2022/08/01 04:17:49;;;;;;;21.10;3.13;;;16.70;99.90;;;;;;5092720;28;20051;-85
2022/08/01 04:20:15;;;;;;;18.20;3.00;;;16.70;99.90;;;;;;5093163;28;20048;-80
2022/08/01 04:22:41;;;;;;;15.45;3.28;;;16.70;99.90;;;;;;5092745;28;20126;-85
2022/08/01 04:25:12;;;;;;;13.68;2.70;;;16.70;99.90;;;;;;5092260;28;20182;-79
2022/08/01 04:27:42;;;;;;;23.45;5.05;;;16.60;99.90;;;;;;5073908;28;20051;-80
2022/08/01 04:30:08;;;;;;;16.40;3.13;;;16.70;99.90;;;;;;5093891;28;20112;-79
2022/08/01 04:32:38;;;;;;;8.23;2.30;;;16.60;99.90;;;;;;5098169;28;20044;-81
2022/08/01 04:35:09;;;;;;;16.10;3.03;;;16.60;99.90;;;;;;5073881;28;20181;-83
2022/08/01 04:37:36;;;;;;;19.02;3.65;;;16.60;99.90;;;;;;5073921;28;20517;-82
2022/08/01 04:40:05;;;;;;;18.05;2.72;;;16.80;99.90;;;;;;5091846;28;20051;-79
2022/08/01 04:42:32;;;;;;;14.15;3.67;;;16.50;99.90;;;;;;5094292;28;20105;-79
2022/08/01 04:44:58;;;;;;;13.57;2.55;;;16.50;99.90;;;;;;5092034;28;20036;-79
2022/08/01 04:47:25;;;;;;;15.23;3.00;;;16.60;99.90;;;;;;5091985;28;20066;-84
2022/08/01 04:49:52;;;;;;;16.77;3.13;;;16.50;99.90;;;;;;5074046;28;20047;-80
2022/08/01 04:52:18;;;;;;;23.35;4.03;;;16.50;99.90;;;;;;5100383;28;20046;-79
2022/08/01 04:54:43;;;;;;;19.10;3.10;;;16.50;99.90;;;;;;5091447;28;20055;-77
2022/08/01 04:57:09;;;;;;;18.67;3.70;;;16.50;99.90;;;;;;5073938;28;20406;-80
2022/08/01 04:59:41;;;;;;;17.13;3.28;;;16.70;99.90;;;;;;5091649;28;20032;-81
2022/08/01 05:02:11;;;;;;;18.13;3.53;;;16.50;99.90;;;;;;5092399;28;20047;-79
2022/08/01 05:04:38;;;;;;;21.02;3.30;;;16.60;99.90;;;;;;5092189;28;20372;-80
2022/08/01 05:07:04;;;;;;;17.58;2.75;;;16.50;99.90;;;;;;5091517;28;20059;-82
2022/08/01 05:09:30;;;;;;;19.65;2.80;;;16.50;99.90;;;;;;5090734;28;20127;-79
2022/08/01 05:11:58;;;;;;;16.30;2.85;;;16.50;99.90;;;;;;5070609;28;20124;-85
2022/08/01 05:14:25;;;;;;;26.10;3.05;;;16.50;99.90;;;;;;5072037;28;20487;-82
2022/08/01 05:16:51;;;;;;;22.52;3.35;;;16.40;99.90;;;;;;5053303;28;20106;-79
2022/08/01 05:19:17;;;;;;;13.68;2.53;;;16.50;99.90;;;;;;5071156;28;20094;-81
2022/08/01 05:21:43;;;;;;;17.10;3.17;;;16.50;99.90;;;;;;5070907;28;20052;-82
2022/08/01 05:24:08;;;;;;;19.58;2.70;;;16.60;99.90;;;;;;5053684;28;20502;-79
2022/08/01 05:26:34;;;;;;;17.13;3.00;;;16.40;99.90;;;;;;5070931;28;20556;-77
2022/08/01 05:29:01;;;;;;;19.92;3.20;;;16.40;99.90;;;;;;5070974;28;20055;-79
2022/08/01 05:31:26;;;;;;;17.50;3.13;;;16.40;99.90;;;;;;5080797;28;20052;-79
2022/08/01 05:33:52;;;;;;;11.60;2.60;;;16.50;99.90;;;;;;5091245;28;20044;-79
2022/08/01 05:36:17;;;;;;;18.35;2.90;;;16.40;99.90;;;;;;5091174;28;20403;-82
2022/08/01 05:38:43;;;;;;;21.20;3.20;;;16.40;99.90;;;;;;5086835;28;20098;-81
2022/08/01 05:41:10;;;;;;;19.58;2.88;;;16.40;99.90;;;;;;5071049;28;20048;-79
2022/08/01 05:43:35;;;;;;;17.52;3.58;;;16.40;99.90;;;;;;5070780;28;20087;-80
2022/08/01 05:46:01;;;;;;;17.95;3.17;;;16.40;99.90;;;;;;5070323;28;20083;-78
2022/08/01 05:48:27;;;;;;;18.80;3.30;;;16.40;99.90;;;;;;5052593;28;20087;-83
2022/08/01 05:50:54;;;;;;;24.48;3.70;;;16.40;99.90;;;;;;5070795;28;20393;-82
2022/08/01 05:53:19;;;;;;;21.70;3.60;;;16.40;99.90;;;;;;5070778;28;20043;-80
2022/08/01 05:55:45;;;;;;;18.92;2.70;;;16.40;99.90;;;;;;5070509;28;20040;-81
2022/08/01 05:58:11;;;;;;;20.10;3.65;;;16.40;99.90;;;;;;5070718;28;20396;-78
2022/08/01 06:00:36;;;;;;;28.38;3.13;;;16.40;99.90;;;;;;5070809;28;20459;-83
2022/08/01 06:03:02;;;;;;;21.10;3.00;;;16.30;99.90;;;;;;5078110;28;20040;-79
2022/08/01 06:05:28;;;;;;;18.08;2.60;;;16.40;99.90;;;;;;5091345;28;20151;-77
2022/08/01 06:07:53;;;;;;;19.85;3.28;;;16.50;99.90;;;;;;5090915;28;20051;-79
2022/08/01 06:10:19;;;;;;;20.10;3.13;;;16.50;99.90;;;;;;5087435;28;20090;-84
2022/08/01 06:12:45;;;;;;;19.17;3.35;;;16.40;99.90;;;;;;5089832;28;20437;-78
2022/08/01 06:15:11;;;;;;;20.08;3.10;;;16.40;99.90;;;;;;5087229;28;20060;-79
2022/08/01 06:17:36;;;;;;;21.08;3.03;;;16.50;99.90;;;;;;5086331;28;20051;-78
2022/08/01 06:20:03;;;;;;;23.73;4.03;;;16.60;99.90;;;;;;5069981;28;20399;-79
2022/08/01 06:22:29;;;;;;;23.58;3.60;;;16.40;99.90;;;;;;5069823;28;20639;-79
2022/08/01 06:24:54;;;;;;;19.23;3.25;;;16.50;99.90;;;;;;5081347;28;20040;-80
2022/08/01 06:27:20;;;;;;;17.92;3.15;;;16.70;99.90;;;;;;5078619;28;20064;-79
2022/08/01 06:29:46;;;;;;;21.70;3.97;;;16.50;99.90;;;;;;5069940;28;20070;-79
2022/08/01 06:32:12;;;;;;;19.95;3.75;;;16.60;99.90;;;;;;5069886;28;20040;-80
2022/08/01 06:34:38;;;;;;;22.73;3.15;;;16.60;99.90;;;;;;5053075;28;20044;-80
2022/08/01 06:37:03;;;;;;;23.38;3.15;;;16.50;99.90;;;;;;5069983;28;20047;-82
2022/08/01 06:39:29;;;;;;;22.33;3.30;;;16.60;99.90;;;;;;5069694;28;20098;-79
2022/08/01 06:41:54;;;;;;;16.52;3.03;;;16.60;99.90;;;;;;5069789;28;20056;-81
2022/08/01 06:44:20;;;;;;;16.15;2.72;;;16.60;99.90;;;;;;5051877;28;20094;-80
2022/08/01 06:46:45;;;;;;;26.73;3.03;;;16.70;99.90;;;;;;5071209;28;20131;-79
2022/08/01 06:49:11;;;;;;;23.70;3.00;;;16.70;99.90;;;;;;5051619;28;20044;-84
2022/08/01 06:51:37;;;;;;;18.98;2.83;;;16.80;99.90;;;;;;5078444;28;20097;-80
2022/08/01 06:54:02;;;;;;;20.70;2.42;;;16.80;99.90;;;;;;5089941;28;20043;-79
2022/08/01 06:56:28;;;;;;;16.88;3.42;;;16.80;99.90;;;;;;5062490;28;20048;-83
2022/08/01 06:59:00;;;;;;;22.20;3.13;;;16.90;99.90;;;;;;5069609;28;20044;-84
2022/08/01 07:01:29;;;;;;;18.88;3.58;;;16.90;99.90;;;;;;5052014;28;20056;-83
2022/08/01 07:03:55;;;;;;;16.60;3.15;;;17.00;99.90;;;;;;5051472;28;20044;-82
2022/08/01 07:06:22;;;;;;;16.27;2.63;;;17.00;99.90;;;;;;5072795;28;20114;-78
2022/08/01 07:08:48;;;;;;;17.85;3.00;;;17.10;99.90;;;;;;5089533;28;20047;-84
2022/08/01 07:11:13;;;;;;;13.65;2.30;;;17.10;99.90;;;;;;5089411;28;20055;-80
2022/08/01 07:13:39;;;;;;;16.83;2.45;;;17.20;99.90;;;;;;5089868;28;20059;-87
2022/08/01 07:16:05;;;;;;;11.60;2.45;;;17.20;99.90;;;;;;5089753;28;20127;-85
2022/08/01 07:18:30;;;;;;;20.73;2.85;;;17.60;99.90;;;;;;5087993;28;20036;-84
2022/08/01 07:20:56;;;;;;;17.67;2.10;;;17.30;99.90;;;;;;5090191;28;20506;-84
2022/08/01 07:23:22;;;;;;;21.52;3.63;;;17.50;99.90;;;;;;5093509;28;20065;-85
2022/08/01 07:25:48;;;;;;;13.35;2.20;;;17.40;99.90;;;;;;5074208;28;20067;-87
2022/08/01 07:28:15;;;;;;;15.57;2.20;;;17.40;99.90;;;;;;5108389;28;20044;-84
2022/08/01 07:30:41;;;;;;;20.58;2.55;;;17.50;99.90;;;;;;5093739;28;20111;-80
2022/08/01 07:33:08;;;;;;;18.25;3.35;;;17.70;99.90;;;;;;5104215;28;20495;-86
2022/08/01 07:35:34;;;;;;;24.80;3.42;;;17.80;99.90;;;;;;5091592;28;20567;-83
2022/08/01 07:37:59;;;;;;;12.38;2.83;;;17.80;99.90;;;;;;5059092;28;20159;-84
2022/08/01 07:40:25;;;;;;;18.23;2.80;;;17.80;99.90;;;;;;5073776;28;20188;-86
2022/08/01 07:42:51;;;;;;;11.95;2.13;;;17.90;99.90;;;;;;5072885;28;20622;-84
2022/08/01 07:45:16;;;;;;;13.93;2.42;;;18.10;99.90;;;;;;5073872;28;20052;-86
2022/08/01 07:47:42;;;;;;;13.02;2.20;;;18.00;99.90;;;;;;5072868;28;20052;-81
2022/08/01 07:50:12;;;;;;;15.48;2.17;;;18.30;99.90;;;;;;5077901;28;20067;-80
2022/08/01 07:52:38;;;;;;;13.05;1.88;;;18.30;99.90;;;;;;5072786;28;20537;-84
2022/08/01 07:55:04;;;;;;;14.25;2.25;;;18.40;99.90;;;;;;5072784;28;20088;-82
2022/08/01 07:57:32;;;;;;;13.85;1.98;;;18.60;99.90;;;;;;5072363;28;20052;-82
2022/08/01 07:59:58;;;;;;;14.45;2.10;;;18.90;99.90;;;;;;5074023;28;20042;-83
2022/08/01 08:02:23;;;;;;;13.95;2.45;;;18.80;99.90;;;;;;5053910;28;20056;-82
2022/08/01 08:04:49;;;;;;;16.40;2.47;;;19.00;99.90;;;;;;5072323;28;20139;-84
2022/08/01 08:07:15;;;;;;;16.08;2.40;;;18.90;99.90;;;;;;5072771;28;20051;-79
2022/08/01 08:09:41;;;;;;;10.85;2.15;;;19.10;99.90;;;;;;5072389;28;20095;-79
2022/08/01 08:12:07;;;;;;;13.82;1.55;;;19.20;99.90;;;;;;5074798;28;20092;-87
2022/08/01 08:14:33;;;;;;;18.95;2.35;;;19.30;99.90;;;;;;5054234;28;20059;-85
2022/08/01 08:17:02;;;;;;;8.20;1.65;;;19.70;99.90;;;;;;5061432;28;20059;-85
2022/08/01 08:19:28;;;;;;;8.60;1.60;;;19.60;99.90;;;;;;5074641;28;20041;-84
2022/08/01 08:21:54;;;;;;;15.30;1.77;;;19.90;99.90;;;;;;5057942;28;20114;-83
2022/08/01 08:24:20;;;;;;;15.88;1.95;;;20.10;99.90;;;;;;5092070;28;20044;-82
2022/08/01 08:26:53;;;;;;;11.80;1.63;;;20.10;99.90;;;;;;5111683;28;20048;-85
2022/08/01 08:29:20;;;;;;;12.00;1.80;;;20.40;99.90;;;;;;5081281;28;20056;-83
2022/08/01 08:31:50;;;;;;;13.18;1.80;;;20.40;99.90;;;;;;5093260;28;20045;-82
2022/08/01 08:34:16;;;;;;;13.80;2.30;;;20.30;99.90;;;;;;5082962;28;20045;-78
2022/08/01 08:36:42;;;;;;;13.45;1.70;;;20.40;99.90;;;;;;5095201;28;20101;-77
2022/08/01 08:39:07;;;;;;;15.20;2.15;;;20.50;99.90;;;;;;5095978;28;20127;-80
2022/08/01 08:41:34;;;;;;;11.93;2.42;;;20.60;99.90;;;;;;5092938;28;20044;-79
2022/08/01 08:44:08;;;;;;;16.50;1.80;;;20.80;99.90;;;;;;5091891;28;20052;-86
2022/08/01 08:46:39;;;;;;;11.18;1.70;;;21.10;99.90;;;;;;5060991;28;20068;-84
2022/08/01 08:49:11;;;;;;;13.43;2.03;;;21.10;99.90;;;;;;5039124;28;20097;-80
2022/08/01 08:51:41;;;;;;;7.65;1.65;;;21.40;99.90;;;;;;5073341;28;20036;-84
2022/08/01 08:54:12;;;;;;;17.05;1.73;;;21.30;99.90;;;;;;5092009;28;20052;-84
2022/08/01 08:56:38;;;;;;;14.00;1.40;;;21.50;99.90;;;;;;5092181;28;20089;-78
2022/08/01 08:59:05;;;;;;;9.80;1.50;;;21.60;99.90;;;;;;5089968;28;20069;-81
2022/08/01 09:01:33;;;;;;;8.85;1.58;;;21.60;99.90;;;;;;5057420;28;20048;-79
2022/08/01 09:03:59;;;;;;;12.63;1.63;;;21.60;99.90;;;;;;5053551;28;20518;-80
2022/08/01 09:06:25;;;;;;;8.55;1.48;;;21.40;99.90;;;;;;5071416;28;20055;-85
2022/08/01 09:08:50;;;;;;;9.82;1.33;;;21.50;99.90;;;;;;5071411;28;20123;-77
2022/08/01 09:11:19;;;;;;;8.48;1.30;;;21.50;99.90;;;;;;5075409;28;20056;-83
2022/08/01 09:14:03;;;;;;;12.10;1.58;;;21.50;99.90;;;;;;5091617;28;20044;-82
2022/08/01 09:16:29;;;;;;;13.03;1.67;;;21.70;99.90;;;;;;5073067;28;20063;-82
2022/08/01 09:19:17;;;;;;;11.25;1.60;;;21.60;99.90;;;;;;5091731;28;20082;-86
2022/08/01 09:22:01;;;;;;;12.45;1.75;;;21.60;99.90;;;;;;5092712;28;20048;-79
2022/08/01 09:24:28;;;;;;;13.10;1.77;;;21.60;99.90;;;;;;5056621;28;20044;-82
2022/08/01 09:26:55;;;;;;;11.95;2.03;;;21.30;99.90;;;;;;5091094;28;20047;-80
2022/08/01 09:29:29;;;;;;;8.43;1.52;;;21.20;99.90;;;;;;5092522;28;20041;-81
2022/08/01 09:31:56;;;;;;;6.40;1.58;;;21.50;99.90;;;;;;5091259;28;20051;-82
2022/08/01 09:34:32;;;;;;;8.68;1.23;;;21.50;99.90;;;;;;5073438;28;20052;-85
2022/08/01 09:37:00;;;;;;;8.25;1.70;;;21.50;99.90;;;;;;5090951;28;20468;-81
2022/08/01 09:39:31;;;;;;;12.85;1.90;;;21.50;99.90;;;;;;5096863;28;20684;-80
2022/08/01 09:42:00;;;;;;;12.15;2.08;;;21.80;99.90;;;;;;5091799;28;20054;-81
2022/08/01 09:44:41;;;;;;;9.10;1.35;;;22.10;99.90;;;;;;5091220;28;20455;-81
2022/08/01 09:47:07;;;;;;;12.25;1.30;;;22.10;99.90;;;;;;5090244;28;20044;-81
2022/08/01 09:49:38;;;;;;;12.90;1.80;;;22.10;99.90;;;;;;5091700;28;20051;-86
2022/08/01 09:52:22;;;;;;;11.77;1.70;;;22.00;99.90;;;;;;5090773;28;20414;-81
2022/08/01 09:54:58;;;;;;;11.93;1.42;;;22.10;99.90;;;;;;5090935;28;20044;-79
2022/08/01 09:57:27;;;;;;;12.15;1.70;;;22.20;99.90;;;;;;5090626;28;20696;-80
2022/08/01 09:59:55;;;;;;;11.05;1.92;;;22.10;99.90;;;;;;5090701;28;20048;-78
2022/08/01 10:02:35;;;;;;;11.98;1.55;;;22.20;99.90;;;;;;5108575;28;20075;-78
2022/08/01 10:05:03;;;;;;;8.10;1.42;;;22.50;99.90;;;;;;5092583;28;20043;-82
2022/08/01 10:07:29;;;;;;;11.88;1.95;;;22.50;99.90;;;;;;5095433;28;20040;-77
2022/08/01 10:09:54;;;;;;;11.27;1.85;;;22.20;99.90;;;;;;5072315;28;20604;-81
2022/08/01 10:12:23;;;;;;;9.73;1.48;;;22.00;99.90;;;;;;5076711;28;20617;-81
2022/08/01 10:14:50;;;;;;;8.85;1.13;;;22.00;99.90;;;;;;5070354;28;20131;-83
2022/08/01 10:17:17;;;;;;;9.38;1.35;;;22.30;99.90;;;;;;5070022;28;20053;-80
2022/08/01 10:19:44;;;;;;;13.82;1.70;;;22.40;99.90;;;;;;5070043;28;20048;-80
2022/08/01 10:22:17;;;;;;;8.80;1.30;;;22.40;99.90;;;;;;5071352;28;20068;-79
2022/08/01 10:24:46;;;;;;;7.63;1.42;;;22.60;99.90;;;;;;5070001;28;20049;-78
2022/08/01 10:27:14;;;;;;;7.95;1.40;;;22.70;99.90;;;;;;5070155;28;20105;-78
2022/08/01 10:30:00;;;;;;;7.38;1.08;;;22.90;99.90;;;;;;5082038;28;20581;-82
2022/08/01 10:32:26;;;;;;;10.07;1.02;;;22.70;99.90;;;;;;5086655;28;20044;-80
2022/08/01 10:34:52;;;;;;;9.00;1.20;;;22.50;99.90;;;;;;5069742;28;20047;-79
2022/08/01 10:37:18;;;;;;;8.93;1.55;;;22.80;99.90;;;;;;5052248;28;20148;-80
2022/08/01 10:39:44;;;;;;;10.63;1.23;;;22.90;99.90;;;;;;5074503;28;20040;-78
2022/08/01 10:42:11;;;;;;;8.32;1.20;;;23.10;99.90;;;;;;5054122;28;20205;-80
2022/08/01 10:44:38;;;;;;;7.43;1.77;;;23.00;99.90;;;;;;5070021;28;20428;-81
2022/08/01 10:47:13;;;;;;;10.00;1.60;;;23.10;99.90;;;;;;5075584;28;20044;-80
2022/08/01 10:49:56;;;;;;;14.68;1.73;;;23.10;99.90;;;;;;5089174;28;20063;-81
2022/08/01 10:52:21;;;;;;;6.50;0.90;;;23.10;99.90;;;;;;5049893;28;20599;-80
2022/08/01 10:54:47;;;;;;;10.00;1.30;;;23.10;99.90;;;;;;5061438;28;20123;-77
2022/08/01 10:57:13;;;;;;;11.90;1.30;;;23.30;99.90;;;;;;5055639;28;20459;-80
2022/08/01 10:59:50;;;;;;;7.75;1.30;;;23.30;99.90;;;;;;5089177;28;20586;-80
2022/08/01 11:02:40;;;;;;;7.50;1.20;;;23.20;99.90;;;;;;5090183;28;20509;-79
2022/08/01 11:05:20;;;;;;;7.35;1.40;;;23.30;99.90;;;;;;5089700;28;20051;-81
2022/08/01 11:07:51;;;;;;;9.90;1.27;;;23.40;99.90;;;;;;5064400;28;20495;-79
2022/08/01 11:10:35;;;;;;;7.35;0.98;;;23.40;99.90;;;;;;5079581;28;20044;-80
2022/08/01 11:13:07;;;;;;;6.30;1.20;;;23.70;99.90;;;;;;5076915;28;20461;-79
2022/08/01 11:15:34;;;;;;;8.40;1.10;;;23.70;99.90;;;;;;5075513;28;20080;-78
2022/08/01 11:18:23;;;;;;;7.95;1.08;;;23.70;99.90;;;;;;5094314;28;20040;-79
2022/08/01 11:20:59;;;;;;;9.82;1.45;;;23.80;99.90;;;;;;5073337;28;20048;-81
2022/08/01 11:23:27;;;;;;;7.88;1.20;;;23.60;99.90;;;;;;5055947;28;20044;-76
2022/08/01 11:25:53;;;;;;;8.32;1.23;;;23.80;99.90;;;;;;5073641;28;20570;-81
2022/08/01 11:28:21;;;;;;;7.60;1.10;;;23.70;99.90;;;;;;5103147;28;20083;-80
2022/08/01 11:30:52;;;;;;;9.95;1.20;;;23.40;99.90;;;;;;5095932;28;20505;-80
2022/08/01 11:33:38;;;;;;;11.05;1.45;;;23.50;99.90;;;;;;5094056;28;20051;-81
2022/08/01 11:36:13;;;;;;;5.18;0.90;;;23.80;99.90;;;;;;5074759;28;20048;-84
2022/08/01 11:38:44;;;;;;;10.55;1.20;;;23.80;99.90;;;;;;5093490;28;20130;-83
2022/08/01 11:41:23;;;;;;;5.97;1.00;;;23.70;99.90;;;;;;5094214;28;20395;-82
2022/08/01 11:44:02;;;;;;;6.45;1.00;;;23.80;99.90;;;;;;5093627;28;20056;-83
2022/08/01 11:46:49;;;;;;;9.27;1.95;;;23.70;98.90;;;;;;5093365;28;20051;-82
2022/08/01 11:49:36;;;;;;;10.38;1.92;;;23.90;99.70;;;;;;5093387;28;20121;-80
2022/08/01 11:52:13;;;;;;;8.00;1.08;;;23.90;99.30;;;;;;5080747;28;20437;-84
2022/08/01 11:54:53;;;;;;;7.93;1.48;;;23.80;99.00;;;;;;5087741;28;20082;-84
2022/08/01 11:57:41;;;;;;;8.85;1.15;;;23.80;99.90;;;;;;5062645;28;20063;-83
2022/08/01 12:00:18;;;;;;;13.32;1.75;;;23.50;98.80;;;;;;5114906;28;20039;-82
2022/08/01 12:03:19;;;;;;;8.32;1.10;;;23.60;99.80;;;;;;5078573;28;20059;-85
2022/08/01 12:06:01;;;;;;;8.18;1.17;;;23.80;99.80;;;;;;5013573;28;20053;-87
2022/08/01 12:08:53;;;;;;;9.68;1.17;;;23.80;99.00;;;;;;5011473;28;20099;-87
2022/08/01 12:11:21;;;;;;;7.68;1.13;;;24.00;98.30;;;;;;5008587;28;20061;-88
2022/08/01 12:13:51;;;;;;;7.05;1.25;;;24.10;99.50;;;;;;4991306;28;20104;-84
2022/08/01 12:16:26;;;;;;;6.72;1.10;;;24.20;99.50;;;;;;4990799;28;20054;-89
2022/08/01 12:18:58;;;;;;;6.20;1.17;;;24.30;98.70;;;;;;4991110;28;20502;-85
2022/08/01 12:21:40;;;;;;;6.25;1.00;;;24.20;99.10;;;;;;4958561;28;20158;-88
2022/08/01 12:24:06;;;;;;;7.72;1.65;;;24.20;98.60;;;;;;4913156;29;20048;-83
2022/08/01 12:26:41;;;;;;;7.55;1.33;;;24.50;99.10;;;;;;4951817;29;20668;-82
2022/08/01 12:29:07;;;;;;;10.73;1.05;;;24.60;98.60;;;;;;4948719;28;20115;-80
2022/08/01 12:31:35;;;;;;;7.65;1.27;;;24.50;97.90;;;;;;4927068;29;20462;-86
2022/08/01 12:34:27;;;;;;;9.77;1.52;;;24.60;99.00;;;;;;4951759;28;20055;-85
2022/08/01 12:36:58;;;;;;;9.52;1.50;;;24.90;97.70;;;;;;4934657;29;20059;-81
2022/08/01 12:39:33;;;;;;;9.82;1.52;;;24.90;98.20;;;;;;4951228;29;20075;-85
2022/08/01 12:41:58;;;;;;;8.07;1.27;;;24.80;97.70;;;;;;4958484;28;20111;-84
2022/08/01 12:44:26;;;;;;;4.80;1.05;;;24.60;97.40;;;;;;4966796;28;20470;-85
2022/08/01 12:46:52;;;;;;;4.38;0.90;;;24.70;97.50;;;;;;4990184;28;20054;-85
2022/08/01 12:49:24;;;;;;;6.18;1.00;;;24.60;97.00;;;;;;4973856;28;20409;-84
2022/08/01 12:51:51;;;;;;;9.50;0.98;;;24.80;97.50;;;;;;4968749;28;20051;-84